createdAt,value
2019-06-25T00:51:03.302Z,22.30
2019-06-25T00:53:51.250Z,22.30
2019-06-25T21:34:25.925Z,25.50
2019-06-25T21:36:55.179Z,25.40
2019-06-25T21:51:50.625Z,25.20
2019-06-25T21:54:19.682Z,25.10
2019-06-25T21:56:48.789Z,25.10
2019-06-25T21:59:17.963Z,25.00
2019-06-25T22:01:49.022Z,25.00
2019-06-25T22:04:18.081Z,24.90
2019-06-25T22:06:49.065Z,24.90
2019-06-25T22:09:18.073Z,24.90
2019-06-25T22:11:47.168Z,24.80
2019-06-25T22:14:16.283Z,24.80
2019-06-25T22:16:45.392Z,24.80
2019-06-25T22:19:14.524Z,24.80
2019-06-25T22:21:43.645Z,24.80
2019-06-25T22:24:12.716Z,24.80
2019-06-25T22:26:41.794Z,24.70
2019-06-25T22:29:10.882Z,24.70
2019-06-25T22:31:39.967Z,24.70
2019-06-25T22:34:09.131Z,24.60
2019-06-25T22:36:38.228Z,24.60
2019-06-25T22:39:08.098Z,24.60
2019-06-25T22:41:37.226Z,24.50
2019-06-25T22:44:06.348Z,24.50
2019-06-25T22:46:35.466Z,24.50
2019-06-25T22:49:05.626Z,24.50
2019-06-25T22:51:34.708Z,24.50
2019-06-25T22:54:03.767Z,24.50
2019-06-25T22:56:32.884Z,24.50
2019-06-25T22:59:02.005Z,24.60
2019-06-25T23:06:28.273Z,24.50
2019-06-25T23:08:57.402Z,24.50
2019-06-25T23:11:28.481Z,24.40
2019-06-25T23:13:57.420Z,24.40
2019-06-25T23:16:26.631Z,24.40
2019-06-25T23:18:55.704Z,24.40
2019-06-25T23:21:24.822Z,24.30
2019-06-25T23:23:53.954Z,24.20
2019-06-25T23:26:23.048Z,24.20
2019-06-25T23:28:52.280Z,24.20
